createdAt,value
2022-09-17T00:01:34.902Z,10.90
2022-09-17T00:04:05.009Z,10.90
2022-09-17T00:06:35.532Z,11.00
2022-09-17T00:09:04.514Z,11.00
2022-09-17T00:11:35.069Z,11.00
2022-09-17T00:14:07.090Z,11.00
2022-09-17T00:16:37.883Z,11.00
2022-09-17T00:19:08.027Z,11.00
2022-09-17T00:21:35.978Z,11.10
2022-09-17T00:24:06.531Z,11.10
2022-09-17T00:26:37.032Z,11.10
2022-09-17T00:29:06.975Z,11.20
2022-09-17T00:31:36.122Z,11.20
2022-09-17T00:34:05.943Z,11.20
2022-09-17T00:36:36.726Z,11.20
2022-09-17T00:39:06.300Z,11.20
2022-09-17T00:41:35.864Z,11.20
2022-09-17T00:44:41.741Z,11.20
2022-09-17T00:47:17.021Z,11.30
2022-09-17T00:49:45.761Z,11.30
2022-09-17T00:52:17.070Z,11.30
2022-09-17T00:54:49.282Z,11.30
2022-09-17T00:57:17.706Z,11.40
2022-09-17T00:59:47.106Z,11.30
2022-09-17T01:02:15.292Z,11.40
2022-09-17T01:04:43.234Z,11.40
2022-09-17T01:07:17.138Z,11.40
2022-09-17T01:09:51.438Z,11.40
2022-09-17T01:12:38.669Z,11.40
2022-09-17T01:15:22.685Z,11.40
2022-09-17T01:18:08.954Z,11.40
2022-09-17T01:21:08.023Z,11.50
2022-09-17T01:24:04.853Z,11.40
2022-09-17T01:26:59.547Z,11.50
2022-09-17T01:29:42.715Z,11.50
2022-09-17T01:32:18.369Z,11.50
2022-09-17T01:34:54.305Z,11.50
2022-09-17T01:37:32.883Z,11.50
2022-09-17T01:40:07.189Z,11.50
2022-09-17T01:42:44.133Z,11.50
2022-09-17T01:45:18.726Z,11.50
2022-09-17T01:47:53.225Z,11.60
2022-09-17T01:50:25.457Z,11.50
2022-09-17T01:52:56.596Z,11.60
2022-09-17T01:55:28.292Z,11.50
2022-09-17T01:58:00.179Z,11.50
2022-09-17T02:00:28.293Z,11.60
2022-09-17T02:03:02.479Z,11.60
2022-09-17T02:05:36.093Z,11.60
2022-09-17T02:08:09.591Z,11.50
2022-09-17T02:10:43.448Z,11.60
2022-09-17T02:13:17.705Z,11.60
2022-09-17T02:15:53.649Z,11.50
2022-09-17T02:18:28.916Z,11.50
2022-09-17T02:21:05.869Z,11.40
2022-09-17T02:23:42.135Z,11.30
2022-09-17T02:26:13.413Z,11.20
2022-09-17T02:28:46.650Z,11.30
2022-09-17T02:31:14.842Z,11.20
2022-09-17T02:33:49.776Z,11.20
2022-09-17T02:36:18.572Z,11.20
2022-09-17T02:38:47.707Z,11.20
2022-09-17T02:41:19.855Z,11.30
2022-09-17T02:44:00.222Z,11.30
2022-09-17T02:46:50.054Z,11.40
2022-09-17T02:49:50.531Z,11.30
2022-09-17T02:52:28.430Z,11.40
2022-09-17T02:55:03.491Z,11.30
2022-09-17T02:57:37.004Z,11.30
2022-09-17T03:00:10.638Z,11.30
2022-09-17T03:02:41.497Z,11.20
2022-09-17T03:05:11.934Z,11.10
2022-09-17T03:07:40.448Z,11.10
2022-09-17T03:10:09.268Z,11.10
2022-09-17T03:12:38.656Z,11.10
2022-09-17T03:15:08.089Z,11.10
2022-09-17T03:17:36.567Z,11.00
2022-09-17T03:20:05.257Z,10.90
2022-09-17T03:22:35.746Z,10.80
2022-09-17T03:25:03.853Z,10.80
2022-09-17T03:27:31.776Z,10.90
2022-09-17T03:29:59.737Z,10.80
2022-09-17T03:32:27.715Z,10.70
2022-09-17T03:34:55.769Z,10.70
2022-09-17T03:37:23.869Z,10.60
2022-09-17T03:39:53.330Z,10.60
2022-09-17T03:42:21.350Z,10.60
2022-09-17T03:44:49.314Z,10.60
2022-09-17T03:47:17.793Z,10.60
2022-09-17T03:49:45.752Z,10.70
2022-09-17T03:52:13.716Z,10.70
2022-09-17T03:54:41.594Z,10.70
2022-09-17T03:57:10.973Z,10.70
2022-09-17T03:59:39.046Z,10.70
2022-09-17T04:02:07.158Z,10.60
2022-09-17T04:04:35.201Z,10.50
2022-09-17T04:07:03.210Z,10.40
2022-09-17T04:09:33.320Z,10.30
2022-09-17T04:12:03.713Z,10.30
2022-09-17T04:14:33.016Z,10.30
2022-09-17T04:17:00.985Z,10.30
2022-09-17T04:19:28.961Z,10.20
2022-09-17T04:21:57.101Z,10.30
2022-09-17T04:24:25.065Z,10.30
2022-09-17T04:26:53.192Z,10.30
2022-09-17T04:29:21.113Z,10.30
2022-09-17T04:31:50.388Z,10.30
2022-09-17T04:34:18.594Z,10.30
2022-09-17T04:36:46.614Z,10.30
2022-09-17T04:39:14.695Z,10.20
2022-09-17T04:41:42.659Z,10.10
2022-09-17T04:44:10.661Z,10.10
2022-09-17T04:46:38.609Z,10.10
2022-09-17T04:49:08.922Z,10.10
2022-09-17T04:51:36.941Z,10.10
2022-09-17T04:54:05.201Z,10.10
2022-09-17T04:56:33.102Z,10.10
2022-09-17T04:59:01.039Z,10.20
2022-09-17T05:01:29.133Z,10.20
2022-09-17T05:03:57.091Z,10.20
2022-09-17T05:06:26.629Z,10.20
2022-09-17T05:08:54.543Z,10.30
2022-09-17T05:11:22.597Z,10.30
2022-09-17T05:13:50.640Z,10.30
2022-09-17T05:16:18.795Z,10.40
2022-09-17T05:18:46.911Z,10.40
2022-09-17T05:21:15.234Z,10.40
2022-09-17T05:23:44.587Z,10.50
2022-09-17T05:26:12.552Z,10.50
2022-09-17T05:28:40.743Z,10.50
2022-09-17T05:31:08.826Z,10.60
2022-09-17T05:33:36.932Z,10.60
2022-09-17T05:36:05.260Z,10.60
2022-09-17T05:38:33.175Z,10.60
2022-09-17T05:41:05.375Z,10.60
2022-09-17T05:43:33.473Z,10.70
2022-09-17T05:46:03.890Z,10.70
2022-09-17T05:48:31.961Z,10.70
2022-09-17T05:51:00.105Z,10.80
2022-09-17T05:53:28.201Z,10.80
2022-09-17T05:55:58.279Z,10.80
2022-09-17T05:58:29.654Z,10.90
2022-09-17T06:01:01.433Z,10.90
2022-09-17T06:03:29.807Z,11.00
2022-09-17T06:06:00.106Z,11.00
2022-09-17T06:08:29.681Z,11.10
2022-09-17T06:11:02.316Z,11.20
2022-09-17T06:13:32.479Z,11.20
2022-09-17T06:16:00.871Z,11.20
2022-09-17T06:18:29.296Z,11.30
2022-09-17T06:20:58.331Z,11.30
2022-09-17T06:23:26.778Z,11.30
2022-09-17T06:25:56.321Z,11.40
2022-09-17T06:28:24.315Z,11.50
2022-09-17T07:10:15.558Z,12.10
2022-09-17T07:12:47.823Z,12.00
2022-09-17T07:15:17.959Z,12.00
2022-09-17T07:17:46.635Z,12.10
2022-09-17T07:20:15.293Z,12.20
2022-09-17T07:22:43.626Z,12.20
2022-09-17T07:25:12.510Z,12.10
2022-09-17T07:27:41.886Z,12.10
2022-09-17T07:30:12.900Z,12.10
2022-09-17T07:32:40.802Z,12.20
2022-09-17T07:35:09.450Z,12.20
2022-09-17T07:37:37.719Z,12.30
2022-09-17T07:40:07.564Z,12.50
2022-09-17T07:42:36.026Z,12.50
2022-09-17T07:45:06.178Z,12.60
2022-09-17T07:47:39.034Z,12.70
2022-09-17T07:50:08.095Z,12.70
2022-09-17T08:01:57.540Z,12.60
2022-09-17T08:04:25.710Z,12.70
2022-09-17T08:06:53.649Z,12.80
2022-09-17T08:09:22.628Z,13.00
2022-09-17T08:11:57.784Z,13.20
2022-09-17T08:14:29.470Z,13.20
2022-09-17T08:26:34.405Z,13.00
2022-09-17T08:29:02.307Z,13.10
2022-09-17T08:31:30.712Z,13.10
2022-09-17T08:41:29.734Z,12.90
2022-09-17T08:44:10.144Z,13.10
2022-09-17T08:46:42.726Z,13.20
2022-09-17T08:49:21.884Z,13.10
2022-09-17T08:52:02.406Z,13.20
2022-09-17T08:54:37.688Z,13.30
2022-09-17T08:57:17.269Z,13.30
2022-09-17T08:59:50.754Z,13.30
2022-09-17T09:02:28.803Z,13.20
2022-09-17T09:05:06.637Z,13.30
2022-09-17T09:07:42.271Z,13.20
2022-09-17T09:10:18.058Z,13.20
2022-09-17T09:12:48.870Z,13.20
2022-09-17T09:15:38.228Z,13.30
2022-09-17T09:18:17.557Z,13.30
2022-09-17T14:05:19.944Z,18.10
2022-09-17T16:06:25.747Z,13.90
2022-09-17T16:47:47.459Z,13.00
2022-09-17T19:05:38.484Z,9.40
2022-09-17T22:48:37.442Z,8.80
2022-09-17T22:51:05.788Z,8.80
2022-09-17T22:53:34.356Z,8.70
2022-09-17T22:56:02.693Z,8.80
2022-09-17T22:58:31.357Z,8.70
2022-09-17T23:00:59.790Z,8.70
2022-09-17T23:03:29.595Z,8.70
2022-09-17T23:06:01.818Z,8.70
2022-09-17T23:08:30.352Z,8.70
2022-09-17T23:10:58.594Z,8.70
2022-09-17T23:13:26.740Z,8.70
2022-09-17T23:15:54.793Z,8.80
2022-09-17T23:18:22.916Z,8.80
2022-09-17T23:20:58.608Z,8.80
2022-09-17T23:23:28.710Z,8.80
2022-09-17T23:25:57.143Z,8.80
2022-09-17T23:28:25.199Z,8.90
2022-09-17T23:30:53.226Z,8.90
2022-09-17T23:33:21.320Z,8.90
2022-09-17T23:35:49.403Z,8.90
2022-09-17T23:38:17.586Z,8.90
2022-09-17T23:40:47.119Z,8.80
2022-09-17T23:43:15.058Z,8.90
2022-09-17T23:45:42.989Z,8.80
2022-09-17T23:48:10.922Z,8.80
2022-09-17T23:50:38.912Z,8.80
2022-09-17T23:53:07.129Z,8.80
2022-09-17T23:55:35.138Z,8.80
2022-09-17T23:58:04.795Z,8.80
